Canmore, Canada
Current Conditions -  °F | °C
As of 4:10 AM on Friday 28 Nov 2014 (Local Time) from CYBW Reporting Station
Light Snow Light Snow  
Wind Chill: -21°   Ceiling: 800
Heat Index:   Visibility: 9mi
Dew Point: -4°   Wind: 16mph
Humidity: 85%   Direction: 10°N
Pressure: 29.57"   Gusts: NA
Location:  51.09°N, 115.36°W
Report Text: CYBW 281110Z AUTO 01014KT 9SM -SNSN OVC008 M18/M20 A2957 RMK SLP100
Loading
Personal Weather Stations






























Interactive Weather Map New forecast layout! Learn more

10-Day Weather Forecast

Advertisements
Track Severe Weather on mobile